Time;durP1;ratioP1;P1;durP2;ratioP2;P2;SDS_P1;SDS_P2;PMS_P1;PMS_P2;Temp;Humidity;BMP_temperature;BMP_pressure;BME280_temperature;BME280_humidity;BME280_pressure;Samples;Min_cycle;Max_cycle;Signal;HPM_P1;HPM_P2
2022/10/24 00:00:48;;;;;;;3.80;2.10;;;;;;;7.52;64.43;94166.03;5072628;28;20416;-36
2022/10/24 00:03:14;;;;;;;1.60;1.50;;;;;;;7.63;64.31;94157.72;5071989;28;20031;-36
2022/10/24 00:05:48;;;;;;;1.42;1.42;;;;;;;7.64;64.00;94161.94;5072223;28;20025;-35
2022/10/24 00:08:14;;;;;;;0.75;0.75;;;;;;;7.70;63.44;94164.66;5072206;28;20032;-36
2022/10/24 00:10:42;;;;;;;2.75;2.55;;;;;;;7.50;63.78;94163.06;5072464;28;20056;-35
2022/10/24 00:13:08;;;;;;;1.40;1.38;;;;;;;7.34;64.48;94169.41;5072388;28;20463;-35
2022/10/24 00:15:34;;;;;;;2.40;2.30;;;;;;;7.33;64.84;94165.19;5072032;28;20536;-35
2022/10/24 00:17:59;;;;;;;0.40;0.40;;;;;;;7.32;64.73;94158.19;5071981;28;20115;-35
2022/10/24 00:20:25;;;;;;;0.50;0.50;;;;;;;7.34;65.13;94154.94;5071850;28;20090;-35
2022/10/24 00:22:50;;;;;;;0.30;0.30;;;;;;;7.22;64.96;94137.03;5072222;28;20028;-35
2022/10/24 00:25:16;;;;;;;1.00;1.00;;;;;;;7.34;64.74;94152.22;5071766;28;20024;-35
2022/10/24 00:27:41;;;;;;;1.80;1.70;;;;;;;6.83;66.86;94157.25;5085865;28;20028;-35
2022/10/24 00:30:07;;;;;;;1.33;1.33;;;;;;;6.88;66.09;94158.50;5074327;28;20024;-35
2022/10/24 00:32:33;;;;;;;0.50;0.50;;;;;;;6.97;65.79;94144.47;5071710;28;20476;-35
2022/10/24 00:34:58;;;;;;;0.80;0.73;;;;;;;7.24;64.67;94149.00;5054005;28;20020;-35
2022/10/24 00:37:24;;;;;;;1.33;1.23;;;;;;;7.15;63.52;94149.31;5071917;28;20051;-35
2022/10/24 00:39:49;;;;;;;0.30;0.30;;;;;;;7.16;63.10;94153.56;5071910;28;20040;-35
2022/10/24 00:42:15;;;;;;;0.75;0.75;;;;;;;7.09;63.05;94143.13;5071783;28;20109;-35
2022/10/24 00:44:41;;;;;;;0.88;0.88;;;;;;;7.24;63.05;94148.25;5071432;28;20032;-35
2022/10/24 00:47:12;;;;;;;13.27;3.20;;;;;;;7.31;62.73;94150.47;5071640;28;20104;-35
2022/10/24 00:49:49;;;;;;;5.50;4.88;;;;;;;7.26;62.77;94162.97;5053575;28;20077;-35
2022/10/24 00:52:20;;;;;;;8.00;4.65;;;;;;;7.18;63.37;94156.56;5071354;28;20028;-35
2022/10/24 00:54:47;;;;;;;7.03;4.38;;;;;;;7.02;64.38;94162.16;5053740;28;20062;-35
2022/10/24 00:57:29;;;;;;;9.52;6.25;;;;;;;7.03;64.49;94161.66;5071079;28;20027;-35
2022/10/24 00:59:57;;;;;;;12.23;6.00;;;;;;;7.00;64.63;94159.91;5053668;28;20035;-35
2022/10/24 01:02:23;;;;;;;9.18;5.65;;;;;;;7.21;64.07;94163.03;5053263;28;20032;-35
2022/10/24 01:04:48;;;;;;;7.03;5.10;;;;;;;6.99;63.98;94165.91;5070829;28;20078;-35
2022/10/24 01:07:32;;;;;;;8.52;4.95;;;;;;;6.89;64.87;94166.22;5071281;28;20709;-35
2022/10/24 01:10:03;;;;;;;9.32;5.72;;;;;;;6.91;65.16;94160.19;5070300;28;20029;-35
2022/10/24 01:12:58;;;;;;;8.85;5.40;;;;;;;6.75;65.71;94163.78;5053422;28;20028;-35
2022/10/24 01:16:01;;;;;;;8.68;4.90;;;;;;;6.62;66.25;94153.38;5071230;28;20040;-35
2022/10/24 01:18:42;;;;;;;10.27;6.07;;;;;;;6.64;66.31;94153.63;5071026;28;20029;-35
2022/10/24 01:21:25;;;;;;;7.45;5.70;;;;;;;6.69;66.00;94149.38;5070732;28;20060;-35
2022/10/24 01:24:01;;;;;;;6.35;4.82;;;;;;;6.68;65.62;94154.09;5084060;28;20481;-36
2022/10/24 01:26:45;;;;;;;16.42;6.60;;;;;;;6.64;65.28;94159.09;5072521;28;20028;-35
2022/10/24 01:29:31;;;;;;;18.38;10.02;;;;;;;6.43;65.68;94146.22;5081136;28;20032;-35
2022/10/24 01:32:06;;;;;;;12.02;7.40;;;;;;;6.57;65.76;94154.16;5070872;28;20032;-35
2022/10/24 01:34:40;;;;;;;10.73;6.05;;;;;;;6.70;65.87;94161.81;5070648;28;20032;-35
2022/10/24 01:37:17;;;;;;;11.32;6.30;;;;;;;6.71;65.68;94166.06;5052773;28;20024;-36
2022/10/24 01:39:47;;;;;;;11.05;5.45;;;;;;;6.68;65.94;94165.06;5070531;28;20035;-35
2022/10/24 01:42:15;;;;;;;11.25;6.57;;;;;;;6.81;65.29;94157.03;5052967;28;20105;-35
2022/10/24 01:44:48;;;;;;;11.38;6.78;;;;;;;6.83;64.75;94154.53;5052869;28;20513;-36
2022/10/24 01:47:17;;;;;;;8.38;5.40;;;;;;;6.56;65.23;94149.91;5052662;28;20040;-35
2022/10/24 01:49:43;;;;;;;;;;;;;;;6.31;66.39;94153.75;5053208;28;20020;-35
2022/10/24 01:52:11;;;;;;;9.02;5.68;;;;;;;6.15;66.54;94140.81;5052526;28;19915;-35
2022/10/24 01:54:38;;;;;;;8.73;4.80;;;;;;;6.35;66.31;94145.25;5052418;28;20028;-35
2022/10/24 01:57:04;;;;;;;7.95;4.88;;;;;;;6.45;66.11;94135.50;5052415;28;20492;-36
2022/10/24 01:59:29;;;;;;;6.55;4.70;;;;;;;6.21;67.08;94149.06;5070555;28;20033;-36
2022/10/24 02:02:18;;;;;;;7.40;5.30;;;;;;;6.33;66.40;94137.53;5070411;28;20051;-35
2022/10/24 02:04:50;;;;;;;9.55;5.38;;;;;;;6.36;66.55;94133.78;5052163;28;20124;-35
2022/10/24 02:07:18;;;;;;;9.45;5.07;;;;;;;6.54;66.23;94137.97;5052651;28;20482;-35
2022/10/24 02:09:45;;;;;;;8.60;4.75;;;;;;;6.47;65.79;94143.97;5070222;28;20039;-35
2022/10/24 02:12:13;;;;;;;11.20;5.78;;;;;;;6.61;65.79;94142.91;5052213;28;20542;-36
2022/10/24 02:14:49;;;;;;;13.90;6.20;;;;;;;6.53;65.56;94131.72;5052555;28;20025;-35
2022/10/24 02:17:15;;;;;;;9.90;5.30;;;;;;;6.39;66.29;94140.28;5036063;28;20036;-35
2022/10/24 02:19:41;;;;;;;16.83;6.03;;;;;;;6.29;66.59;94139.03;5062267;28;20580;-35
2022/10/24 02:22:31;;;;;;;8.38;5.05;;;;;;;6.33;66.03;94142.25;5093619;28;20027;-35
2022/10/24 02:25:04;;;;;;;36.63;5.63;;;;;;;6.25;66.26;94138.56;5092077;28;20028;-35
2022/10/24 02:27:49;;;;;;;7.00;5.22;;;;;;;6.16;66.34;94145.06;5056333;28;20029;-35
2022/10/24 02:30:17;;;;;;;10.95;6.20;;;;;;;6.30;66.07;94141.31;5075163;28;20028;-35
2022/10/24 02:32:46;;;;;;;22.00;9.40;;;;;;;6.16;65.54;94111.41;5076688;28;20089;-35
2022/10/24 02:35:14;;;;;;;15.63;8.75;;;;;;;6.30;65.79;94143.28;5076120;28;20480;-35
2022/10/24 02:37:43;;;;;;;9.50;6.65;;;;;;;6.07;66.06;94140.63;5076435;28;20103;-35
2022/10/24 02:40:11;;;;;;;11.75;6.50;;;;;;;6.13;65.76;94131.63;5076101;28;20415;-35
2022/10/24 02:42:37;;;;;;;13.10;5.63;;;;;;;6.22;65.41;94132.09;5075914;28;20032;-35
2022/10/24 02:45:03;;;;;;;13.90;7.63;;;;;;;6.07;66.20;94143.34;5075978;28;20070;-35
2022/10/24 02:47:30;;;;;;;13.25;8.50;;;;;;;6.00;66.21;94127.41;5094268;28;20028;-35
2022/10/24 02:49:56;;;;;;;15.15;9.23;;;;;;;5.94;66.49;94145.13;5076175;28;20046;-35
2022/10/24 02:52:22;;;;;;;12.85;7.85;;;;;;;5.90;66.82;94141.91;5093882;28;20484;-35
2022/10/24 02:54:49;;;;;;;10.80;5.97;;;;;;;5.89;66.24;94130.19;5093815;28;20023;-35
2022/10/24 02:57:14;;;;;;;11.10;5.90;;;;;;;5.90;65.97;94152.88;5081402;28;20027;-35
2022/10/24 02:59:40;;;;;;;9.45;5.75;;;;;;;5.72;67.10;94143.16;5073778;28;20025;-35
2022/10/24 03:02:05;;;;;;;9.63;5.53;;;;;;;5.75;67.04;94144.91;5083313;28;20479;-35
2022/10/24 03:04:31;;;;;;;11.23;6.40;;;;;;;5.99;66.52;94147.13;5075346;28;20043;-35
2022/10/24 03:06:56;;;;;;;14.02;6.40;;;;;;;5.57;66.84;94130.94;5093591;28;20063;-35
2022/10/24 03:09:21;;;;;;;15.77;5.57;;;;;;;5.66;67.02;94147.13;5093687;28;20086;-35
2022/10/24 03:11:47;;;;;;;8.75;6.15;;;;;;;5.44;67.63;94144.41;5093421;28;20028;-35
2022/10/24 03:14:12;;;;;;;7.65;5.35;;;;;;;5.58;67.62;94141.44;5075491;28;20020;-35
2022/10/24 03:16:38;;;;;;;8.75;5.90;;;;;;;5.92;66.89;94142.91;5077707;28;20033;-35
2022/10/24 03:19:03;;;;;;;10.25;5.95;;;;;;;5.66;66.88;94101.31;5055373;28;20404;-35
2022/10/24 03:21:29;;;;;;;11.45;6.20;;;;;;;5.99;66.39;94139.66;5073415;28;20051;-35
2022/10/24 03:23:54;;;;;;;8.45;6.20;;;;;;;5.86;66.78;94135.94;5073216;28;20056;-35
2022/10/24 03:26:20;;;;;;;10.13;6.72;;;;;;;5.77;67.06;94138.91;5086221;28;20032;-35
2022/10/24 03:28:45;;;;;;;7.75;5.55;;;;;;;5.78;66.94;94129.44;5086924;28;20021;-35
2022/10/24 03:31:11;;;;;;;9.70;4.85;;;;;;;5.76;66.86;94129.94;5072890;28;20021;-35
2022/10/24 03:33:36;;;;;;;8.45;5.43;;;;;;;5.82;66.80;94125.22;5072372;28;20028;-35
2022/10/24 03:36:02;;;;;;;8.68;5.40;;;;;;;5.84;67.14;94139.19;5072788;28;20074;-35
2022/10/24 03:38:27;;;;;;;9.25;5.43;;;;;;;5.70;67.04;94131.19;5072812;28;20115;-35
2022/10/24 03:40:53;;;;;;;7.68;4.43;;;;;;;5.62;66.45;94135.69;5072719;28;20028;-35
2022/10/24 03:43:19;;;;;;;9.90;4.43;;;;;;;5.78;66.66;94135.66;5072910;28;20021;-35
2022/10/24 03:45:44;;;;;;;5.18;3.78;;;;;;;5.71;66.37;94138.19;5072857;28;20028;-35
2022/10/24 03:48:10;;;;;;;6.53;3.75;;;;;;;5.76;66.31;94146.38;5054743;28;20024;-35
2022/10/24 03:50:36;;;;;;;5.50;4.22;;;;;;;5.70;66.50;94133.94;5072515;28;20103;-35
2022/10/24 03:53:01;;;;;;;9.35;4.13;;;;;;;5.66;66.72;94145.16;5072602;28;20029;-35
2022/10/24 03:55:27;;;;;;;8.27;4.75;;;;;;;5.91;66.31;94141.38;5072722;28;20021;-35
2022/10/24 03:57:53;;;;;;;11.00;6.82;;;;;;;5.76;66.39;94140.16;5072459;28;20024;-35
2022/10/24 04:00:18;;;;;;;8.80;5.63;;;;;;;5.70;66.64;94131.19;5072305;28;20107;-35
2022/10/24 04:02:45;;;;;;;9.52;7.10;;;;;;;5.51;67.24;94133.72;5072222;28;20028;-35
2022/10/24 04:05:11;;;;;;;14.32;9.07;;;;;;;5.63;67.49;94128.97;5072105;28;20409;-36
2022/10/24 04:07:37;;;;;;;13.32;8.52;;;;;;;5.79;66.98;94130.94;5072166;28;20032;-35
2022/10/24 04:10:03;;;;;;;11.88;6.45;;;;;;;5.86;66.25;94128.47;5072234;28;20124;-35
2022/10/24 04:12:29;;;;;;;13.30;7.75;;;;;;;5.93;65.93;94133.41;5084313;28;20032;-35
2022/10/24 04:14:54;;;;;;;12.30;7.90;;;;;;;5.93;65.73;94127.94;5092381;28;20580;-35
2022/10/24 04:17:19;;;;;;;11.82;7.18;;;;;;;5.94;65.70;94126.69;5092267;28;20028;-35
2022/10/24 04:19:45;;;;;;;9.05;6.60;;;;;;;5.70;66.59;94123.72;5092222;28;20020;-36
2022/10/24 04:22:10;;;;;;;12.43;7.18;;;;;;;5.64;66.95;94120.25;5092505;28;20031;-35
2022/10/24 04:24:38;;;;;;;114.93;12.68;;;;;;;5.55;67.30;94109.56;5092317;28;20028;-35
2022/10/24 04:27:04;;;;;;;12.65;7.07;;;;;;;5.80;67.39;94124.97;5072490;28;20025;-35
2022/10/24 04:29:29;;;;;;;21.75;7.75;;;;;;;5.88;67.52;94122.47;5084654;28;20450;-35
2022/10/24 04:31:55;;;;;;;13.13;7.53;;;;;;;5.86;67.71;94131.19;5092274;28;20028;-35
2022/10/24 04:34:20;;;;;;;13.93;7.30;;;;;;;5.69;68.56;94133.19;5092239;28;20480;-36
2022/10/24 04:36:46;;;;;;;13.07;6.50;;;;;;;5.77;68.26;94122.47;5091884;28;20023;-36
2022/10/24 04:39:11;;;;;;;10.82;6.68;;;;;;;5.79;68.33;94125.44;5092160;28;20024;-35
2022/10/24 04:41:37;;;;;;;9.00;6.07;;;;;;;5.83;67.80;94126.69;5091892;28;20031;-35
2022/10/24 04:44:02;;;;;;;9.32;4.57;;;;;;;5.70;68.24;94125.72;5090699;28;20085;-35
2022/10/24 04:46:28;;;;;;;7.75;4.72;;;;;;;5.98;67.37;94118.97;5091607;28;20039;-35
2022/10/24 04:48:53;;;;;;;9.40;4.70;;;;;;;5.97;67.48;94122.97;5091708;28;20031;-35
2022/10/24 04:51:19;;;;;;;14.07;5.65;;;;;;;5.93;67.42;94127.94;5091880;28;20457;-35
2022/10/24 04:53:44;;;;;;;21.27;6.00;;;;;;;5.93;67.25;94119.72;5091936;28;20415;-35
2022/10/24 04:56:10;;;;;;;25.27;5.38;;;;;;;5.82;67.71;94122.47;5088155;28;20074;-35
2022/10/24 04:58:35;;;;;;;7.75;5.03;;;;;;;5.63;68.29;94128.97;5071489;28;20055;-35
2022/10/24 05:01:01;;;;;;;7.65;4.75;;;;;;;5.74;68.08;94129.69;5072154;28;20104;-35
2022/10/24 05:03:26;;;;;;;8.65;5.88;;;;;;;5.80;67.80;94133.19;5091124;28;20044;-36
2022/10/24 05:05:52;;;;;;;11.73;7.10;;;;;;;5.86;68.06;94139.44;5091371;28;20065;-35
2022/10/24 05:08:17;;;;;;;17.08;9.60;;;;;;;5.90;68.23;94136.41;5082544;28;20043;-35
2022/10/24 05:10:43;;;;;;;8.02;6.38;;;;;;;5.76;68.82;94140.88;5070973;28;20029;-36
2022/10/24 05:13:09;;;;;;;11.30;6.35;;;;;;;5.75;69.05;94142.16;5071203;28;20032;-35
2022/10/24 05:15:34;;;;;;;7.75;5.63;;;;;;;5.60;69.01;94111.53;5071207;28;20479;-36
2022/10/24 05:18:00;;;;;;;27.48;12.82;;;;;;;5.81;69.21;94134.66;5070827;28;20028;-35
2022/10/24 05:20:26;;;;;;;39.55;17.77;;;;;;;5.80;69.14;94141.41;5070834;28;20077;-36
2022/10/24 05:22:52;;;;;;;38.22;19.13;;;;;;;6.05;68.48;94148.59;5070854;28;20028;-35
2022/10/24 05:25:17;;;;;;;86.45;22.13;;;;;;;5.86;69.31;94147.66;5070220;28;20520;-35
2022/10/24 05:27:43;;;;;;;34.40;16.58;;;;;;;6.20;68.74;94144.81;5070665;28;20029;-36
2022/10/24 05:30:09;;;;;;;36.80;13.35;;;;;;;6.39;68.12;94134.78;5088737;28;20118;-36
2022/10/24 05:32:34;;;;;;;28.05;14.02;;;;;;;6.45;66.44;94141.75;5091274;28;20474;-35
2022/10/24 05:35:00;;;;;;;20.73;13.43;;;;;;;6.56;66.03;94144.41;5090825;28;20020;-35
2022/10/24 05:37:26;;;;;;;27.85;15.50;;;;;;;6.61;65.03;94142.91;5090694;28;20032;-35
2022/10/24 05:39:51;;;;;;;27.65;15.05;;;;;;;6.60;65.33;94144.16;5072796;28;20103;-36
2022/10/24 05:42:17;;;;;;;39.22;16.08;;;;;;;6.63;65.98;94143.13;5090981;28;20484;-35
2022/10/24 05:44:42;;;;;;;47.92;15.73;;;;;;;6.83;65.49;94132.56;5090946;28;20084;-35
2022/10/24 05:47:08;;;;;;;46.00;15.52;;;;;;;6.95;65.39;94143.47;5090576;28;20526;-35
2022/10/24 05:49:33;;;;;;;27.85;14.55;;;;;;;6.98;65.49;94134.97;5090591;28;20027;-35
2022/10/24 05:51:59;;;;;;;57.67;23.15;;;;;;;7.06;65.37;94138.66;5090845;28;20023;-35
2022/10/24 05:54:24;;;;;;;81.97;28.67;;;;;;;7.07;65.55;94148.38;5090245;28;20120;-35
2022/10/24 05:56:50;;;;;;;225.82;70.35;;;;;;;6.87;66.18;94143.25;5081793;28;20039;-35
2022/10/24 05:59:15;;;;;;;410.20;142.82;;;;;;;7.11;65.94;94148.84;5070526;28;20025;-35
2022/10/24 06:01:41;;;;;;;313.60;104.97;;;;;;;7.06;66.34;94138.66;5076742;28;20104;-35
2022/10/24 06:04:07;;;;;;;264.10;89.72;;;;;;;7.37;65.65;94148.41;5085011;28;20143;-36
2022/10/24 06:06:41;;;;;;;234.10;88.18;;;;;;;7.41;65.99;94152.38;5050109;28;20053;-36
2022/10/24 06:09:06;;;;;;;134.93;58.22;;;;;;;7.60;66.04;94150.47;5050127;28;20028;-35
2022/10/24 06:11:32;;;;;;;136.00;53.42;;;;;;;7.87;65.87;94156.25;5050138;28;20082;-35
2022/10/24 06:13:57;;;;;;;153.80;57.20;;;;;;;8.01;65.91;94157.88;5050388;28;20374;-35
2022/10/24 06:16:24;;;;;;;127.30;46.42;;;;;;;8.25;65.75;94166.13;5050051;28;20029;-35
2022/10/24 06:18:50;;;;;;;51.60;22.52;;;;;;;8.39;66.49;94165.00;5050031;28;20585;-35
2022/10/24 06:21:15;;;;;;;40.38;18.42;;;;;;;8.54;66.68;94165.31;5050277;28;20033;-36
2022/10/24 06:23:41;;;;;;;28.48;15.38;;;;;;;8.74;66.62;94167.59;5050270;28;20094;-35
2022/10/24 06:26:09;;;;;;;39.25;15.73;;;;;;;8.98;66.12;94164.03;5061562;28;20021;-35
2022/10/24 06:28:35;;;;;;;22.90;13.23;;;;;;;9.22;66.39;94176.97;5065047;28;20017;-36
2022/10/24 06:31:02;;;;;;;19.08;9.98;;;;;;;9.63;65.68;94166.34;5049905;28;20130;-35
2022/10/24 06:33:28;;;;;;;46.17;13.48;;;;;;;10.24;63.76;94163.34;5050169;28;20044;-36
2022/10/24 06:35:53;;;;;;;21.67;12.70;;;;;;;11.02;62.02;94165.28;5049990;28;20048;-36
2022/10/24 06:38:18;;;;;;;31.50;14.52;;;;;;;11.83;59.85;94159.72;5049877;28;20059;-36
2022/10/24 06:40:44;;;;;;;35.00;15.27;;;;;;;12.57;58.21;94167.13;5049871;28;20099;-36
2022/10/24 06:43:09;;;;;;;28.88;12.98;;;;;;;13.40;56.02;94170.34;5049819;28;20032;-36
2022/10/24 06:45:37;;;;;;;38.80;14.73;;;;;;;14.30;53.66;94169.00;5050130;28;20025;-36
2022/10/24 06:48:02;;;;;;;26.85;10.88;;;;;;;15.22;51.10;94170.34;5049787;28;20408;-36
2022/10/24 06:50:28;;;;;;;23.17;13.05;;;;;;;16.38;48.29;94168.56;5050023;28;20108;-36
2022/10/24 06:52:53;;;;;;;29.35;12.65;;;;;;;17.54;45.48;94171.91;5050065;28;20037;-36
2022/10/24 06:55:19;;;;;;;16.25;9.18;;;;;;;18.42;43.41;94154.97;5049955;28;20532;-36
2022/10/24 06:57:44;;;;;;;28.70;11.75;;;;;;;19.20;41.33;94174.91;5049657;28;20021;-36
2022/10/24 07:00:10;;;;;;;17.45;10.90;;;;;;;19.77;40.38;94179.03;5049540;28;20028;-36
2022/10/24 07:02:36;;;;;;;11.07;8.70;;;;;;;20.21;39.36;94177.34;5063722;28;20411;-36
2022/10/24 07:05:02;;;;;;;9.27;7.35;;;;;;;20.90;38.16;94179.97;5069529;28;20036;-34
2022/10/24 07:07:27;;;;;;;10.27;8.07;;;;;;;21.33;36.99;94180.03;5071092;28;20040;-34
2022/10/24 07:09:55;;;;;;;12.00;7.38;;;;;;;21.46;37.05;94177.41;5073635;28;20124;-34
2022/10/24 07:12:24;;;;;;;12.18;7.85;;;;;;;22.17;35.46;94184.78;5073348;28;20040;-35
2022/10/24 07:14:49;;;;;;;22.77;7.03;;;;;;;22.16;35.42;94186.13;5073224;28;20078;-34
2022/10/24 07:17:15;;;;;;;6.90;4.82;;;;;;;22.92;34.55;94190.13;5073471;28;20037;-34
2022/10/24 07:19:41;;;;;;;5.93;3.42;;;;;;;23.52;33.65;94178.91;5073187;28;20024;-34
2022/10/24 07:22:06;;;;;;;5.97;4.13;;;;;;;23.95;32.83;94185.63;5073380;28;20032;-34
2022/10/24 07:24:32;;;;;;;4.70;4.20;;;;;;;24.41;32.25;94170.50;5073314;28;20458;-34
2022/10/24 07:26:58;;;;;;;29.42;5.80;;;;;;;24.76;31.45;94174.59;5054432;28;20550;-34
2022/10/24 07:29:23;;;;;;;9.10;5.00;;;;;;;25.07;31.14;94167.69;5064488;28;20052;-34
2022/10/24 07:31:49;;;;;;;4.97;4.20;;;;;;;25.28;31.03;94168.09;5073229;28;20082;-34
2022/10/24 07:34:15;;;;;;;7.45;4.30;;;;;;;25.49;30.86;94167.78;5072853;28;20024;-34
2022/10/24 07:36:40;;;;;;;8.32;4.38;;;;;;;25.88;30.48;94166.88;5072854;28;20028;-34
2022/10/24 07:39:05;;;;;;;16.35;5.25;;;;;;;26.01;30.24;94166.09;5073102;28;20024;-34
2022/10/24 07:41:31;;;;;;;7.50;3.15;;;;;;;25.88;30.30;94167.56;5054871;28;20489;-34
2022/10/24 07:44:02;;;;;;;6.53;4.10;;;;;;;26.43;29.95;94159.59;5072925;28;20029;-34
2022/10/24 07:46:28;;;;;;;8.40;3.65;;;;;;;26.31;29.85;94161.88;5072641;28;20039;-34
2022/10/24 07:48:54;;;;;;;2.95;2.65;;;;;;;25.75;30.49;94162.69;5072983;28;20024;-35
2022/10/24 07:51:20;;;;;;;3.53;3.15;;;;;;;26.40;29.86;94160.88;5072883;28;20040;-35
2022/10/24 07:53:46;;;;;;;3.97;3.10;;;;;;;26.53;30.15;94165.03;5072869;28;20136;-35
2022/10/24 07:56:14;;;;;;;8.63;5.60;;;;;;;27.16;29.24;94157.25;5070581;28;20455;-35
2022/10/24 07:58:41;;;;;;;5.45;3.90;;;;;;;27.59;28.26;94158.44;5072673;28;20465;-35
2022/10/24 08:01:12;;;;;;;5.53;3.15;;;;;;;27.79;28.12;94161.38;5070893;28;20033;-35
2022/10/24 08:03:37;;;;;;;8.38;4.45;;;;;;;27.68;28.54;94160.22;5052161;28;20055;-35
2022/10/24 08:06:08;;;;;;;4.82;3.65;;;;;;;28.28;27.39;94152.75;5052357;28;20108;-34
2022/10/24 08:08:34;;;;;;;6.65;3.75;;;;;;;27.59;27.97;94146.38;5052336;28;20032;-35
2022/10/24 08:11:00;;;;;;;5.45;3.28;;;;;;;28.16;27.56;94158.66;5052454;28;20017;-35
2022/10/24 08:13:25;;;;;;;10.48;5.60;;;;;;;28.31;26.73;94143.63;5052053;28;20087;-35
2022/10/24 08:15:50;;;;;;;4.00;3.00;;;;;;;28.89;25.43;94147.28;5052427;28;20013;-35
2022/10/24 08:18:16;;;;;;;4.72;3.00;;;;;;;28.76;26.03;94154.59;5052057;28;20025;-34
2022/10/24 08:20:41;;;;;;;6.55;3.05;;;;;;;28.63;27.07;94151.97;5052303;28;20024;-35
2022/10/24 08:23:07;;;;;;;34.08;5.32;;;;;;;29.03;26.54;94148.53;5052040;28;20485;-35
2022/10/24 08:25:33;;;;;;;4.97;3.00;;;;;;;29.65;25.79;94149.28;5051585;28;20164;-35
2022/10/24 08:27:58;;;;;;;5.25;3.00;;;;;;;29.08;26.09;94143.72;5034025;28;20070;-35
2022/10/24 08:30:24;;;;;;;6.03;2.30;;;;;;;29.44;25.60;94142.16;5051695;28;20029;-35
2022/10/24 08:32:49;;;;;;;3.85;2.20;;;;;;;29.35;25.62;94137.59;5052135;28;20028;-35
2022/10/24 08:35:20;;;;;;;4.60;2.03;;;;;;;28.80;26.15;94145.53;5051693;28;20092;-35
2022/10/24 08:37:46;;;;;;;3.70;2.60;;;;;;;29.09;26.36;94133.78;5051987;28;20029;-35
2022/10/24 08:40:15;;;;;;;2.40;1.75;;;;;;;29.10;25.84;94133.16;5051935;28;20401;-35
2022/10/24 08:42:41;;;;;;;4.45;2.50;;;;;;;29.71;24.90;94123.88;5033902;28;20055;-35
2022/10/24 08:45:13;;;;;;;3.13;2.20;;;;;;;29.79;25.59;94139.13;5051529;28;20056;-35
2022/10/24 08:47:48;;;;;;;5.82;2.75;;;;;;;30.17;25.11;94136.09;5033788;28;20025;-35
2022/10/24 08:50:23;;;;;;;5.75;4.05;;;;;;;30.34;24.82;94130.22;5033760;28;20025;-35
2022/10/24 08:52:48;;;;;;;2.92;2.47;;;;;;;29.97;24.56;94128.31;5051366;28;20051;-35
2022/10/24 08:55:20;;;;;;;4.55;2.08;;;;;;;30.49;25.15;94131.41;5051345;28;20489;-35
2022/10/24 08:57:49;;;;;;;3.90;2.40;;;;;;;30.17;24.87;94133.22;5067972;28;20443;-35
2022/10/24 09:00:27;;;;;;;12.90;3.25;;;;;;;29.91;24.80;94122.44;5071196;28;20534;-34
2022/10/24 09:03:16;;;;;;;6.78;2.83;;;;;;;30.12;25.43;94123.84;5055238;28;20091;-35
2022/10/24 09:05:46;;;;;;;6.50;2.78;;;;;;;30.73;24.40;94122.84;5040138;28;20073;-35
2022/10/24 09:08:32;;;;;;;2.53;1.80;;;;;;;30.68;24.18;94116.31;5033715;28;20029;-34
2022/10/24 09:11:03;;;;;;;4.60;2.67;;;;;;;30.52;24.55;94113.69;5051313;28;20020;-34
2022/10/24 09:13:29;;;;;;;5.28;3.60;;;;;;;30.72;24.09;94113.56;5050977;28;20089;-35
2022/10/24 09:15:55;;;;;;;5.72;2.58;;;;;;;30.58;24.71;94107.47;5051235;28;20025;-34
2022/10/24 09:18:34;;;;;;;6.03;2.60;;;;;;;30.19;24.80;94110.50;5051187;28;20463;-34
2022/10/24 09:21:00;;;;;;;8.07;3.55;;;;;;;30.52;24.81;94108.00;5051491;28;20523;-34
2022/10/24 09:23:26;;;;;;;5.90;2.58;;;;;;;30.51;24.25;94103.72;5050792;28;20029;-34
2022/10/24 09:25:54;;;;;;;6.18;2.50;;;;;;;30.61;24.17;94101.16;5060133;28;20086;-34
2022/10/24 09:28:20;;;;;;;7.47;3.90;;;;;;;30.31;24.43;94102.34;5050059;28;20401;-34
2022/10/24 09:30:46;;;;;;;6.70;2.97;;;;;;;30.41;24.71;94105.50;5032474;28;20036;-34
2022/10/24 09:33:20;;;;;;;26.55;3.33;;;;;;;30.28;24.43;94101.53;5050808;28;20021;-34
2022/10/24 09:35:46;;;;;;;4.32;2.45;;;;;;;30.05;25.09;94098.66;5050996;28;20031;-34
2022/10/24 09:38:32;;;;;;;10.32;2.65;;;;;;;30.42;25.12;94095.56;5033262;28;20056;-35
2022/10/24 09:41:22;;;;;;;3.47;2.00;;;;;;;30.72;24.17;94099.31;5050561;28;20449;-34
2022/10/24 09:43:53;;;;;;;5.25;2.45;;;;;;;30.60;23.76;94093.28;5041260;28;20037;-35
2022/10/24 09:46:19;;;;;;;12.02;2.90;;;;;;;30.71;24.41;94092.16;5033294;28;20044;-34
2022/10/24 09:48:58;;;;;;;9.27;2.60;;;;;;;30.57;23.64;94091.75;5052405;28;20416;-33
2022/10/24 09:51:40;;;;;;;22.42;3.80;;;;;;;30.90;23.66;94090.59;5070561;28;20070;-34
2022/10/24 09:54:17;;;;;;;4.10;2.50;;;;;;;31.00;23.45;94090.88;5070668;28;20085;-34
2022/10/24 09:56:48;;;;;;;6.82;2.42;;;;;;;30.05;24.23;94092.97;5062524;28;20021;-34
2022/10/24 09:59:57;;;;;;;22.60;4.05;;;;;;;30.62;23.31;94088.34;5032539;28;20398;-34
2022/10/24 10:02:26;;;;;;;8.60;2.13;;;;;;;30.69;23.45;94089.25;5050231;28;20054;-34
2022/10/24 10:05:04;;;;;;;6.47;2.80;;;;;;;30.89;23.43;94087.00;5049993;28;20049;-34
2022/10/24 10:07:32;;;;;;;6.93;2.40;;;;;;;30.97;22.79;94084.38;5050150;28;20025;-34
2022/10/24 10:10:00;;;;;;;7.38;2.67;;;;;;;31.00;23.12;94082.31;5050402;28;20060;-34
2022/10/24 10:12:33;;;;;;;29.25;4.88;;;;;;;30.93;22.90;94081.41;5032001;28;20045;-34
2022/10/24 10:15:00;;;;;;;12.55;3.20;;;;;;;31.05;22.73;94078.19;5049868;28;20060;-34
2022/10/24 10:17:29;;;;;;;16.42;3.60;;;;;;;30.91;23.03;94081.34;5050186;28;20025;-34
2022/10/24 10:19:55;;;;;;;13.95;3.17;;;;;;;31.31;22.30;94070.31;5050407;28;20495;-35
2022/10/24 10:22:24;;;;;;;9.77;2.83;;;;;;;31.38;22.47;94072.66;5049959;28;20028;-34
2022/10/24 10:24:50;;;;;;;6.97;3.45;;;;;;;31.54;22.71;94068.78;5049595;28;20036;-34
2022/10/24 10:27:33;;;;;;;6.55;2.60;;;;;;;31.84;22.46;94067.41;5032230;28;20114;-34
2022/10/24 10:30:12;;;;;;;7.97;2.78;;;;;;;32.04;22.07;94065.06;5066420;28;20615;-34
2022/10/24 10:33:05;;;;;;;7.60;3.08;;;;;;;32.09;21.62;94063.03;5070245;28;20036;-34
2022/10/24 10:35:58;;;;;;;6.50;2.83;;;;;;;31.98;21.73;94064.22;5024065;28;20040;-34
2022/10/24 10:38:44;;;;;;;9.50;3.00;;;;;;;32.34;21.70;94056.47;5069931;28;20072;-34
2022/10/24 10:41:28;;;;;;;22.77;3.95;;;;;;;32.17;21.50;94063.94;5071272;28;20032;-34
2022/10/24 10:44:09;;;;;;;6.32;2.78;;;;;;;32.10;22.08;94064.47;5073879;28;20033;-34
2022/10/24 10:46:46;;;;;;;8.25;3.22;;;;;;;32.41;21.37;94054.47;5058745;28;20037;-35
2022/10/24 10:49:39;;;;;;;8.77;3.00;;;;;;;32.69;20.68;94055.09;5053774;28;20036;-34
2022/10/24 10:52:25;;;;;;;7.85;2.05;;;;;;;33.11;21.11;94049.53;5054089;28;20033;-34
2022/10/24 10:55:15;;;;;;;9.70;3.33;;;;;;;32.80;20.95;94051.03;5039754;28;20135;-34
2022/10/24 10:57:46;;;;;;;12.07;4.20;;;;;;;32.76;20.88;94045.97;5069288;28;20511;-34
2022/10/24 11:00:16;;;;;;;15.60;3.55;;;;;;;32.46;21.89;94050.28;5073797;28;20074;-34
2022/10/24 11:03:04;;;;;;;9.82;2.65;;;;;;;31.99;21.58;94045.66;5041046;28;20036;-34
2022/10/24 11:05:46;;;;;;;9.55;2.78;;;;;;;32.13;21.45;94043.13;5053644;28;20056;-34
2022/10/24 11:08:27;;;;;;;11.50;3.08;;;;;;;32.22;22.53;94041.19;5036008;28;20075;-35
2022/10/24 11:10:56;;;;;;;15.20;3.25;;;;;;;32.64;21.13;94036.38;5053608;28;20508;-35
2022/10/24 11:13:41;;;;;;;7.75;2.53;;;;;;;33.06;20.93;94030.81;5053307;28;20025;-35
2022/10/24 11:16:11;;;;;;;14.80;3.22;;;;;;;33.02;20.32;94036.47;5035770;28;20386;-35
2022/10/24 11:18:41;;;;;;;8.63;2.88;;;;;;;33.27;20.45;94026.91;5053479;28;20409;-35
2022/10/24 11:21:12;;;;;;;11.70;3.03;;;;;;;32.88;20.76;94026.16;5035362;28;20025;-35
2022/10/24 11:24:04;;;;;;;8.63;3.25;;;;;;;33.02;20.79;94030.75;5053376;28;20036;-35
2022/10/24 11:26:37;;;;;;;12.73;3.33;;;;;;;32.75;21.31;94021.63;5049563;28;20042;-35
2022/10/24 11:29:16;;;;;;;8.32;2.95;;;;;;;32.57;21.13;94020.53;5064563;28;20036;-35
2022/10/24 11:31:49;;;;;;;23.95;3.55;;;;;;;32.43;21.27;94020.19;5035210;28;20108;-34
2022/10/24 11:34:24;;;;;;;5.50;2.70;;;;;;;32.46;21.54;94008.16;5035262;28;20469;-35
2022/10/24 11:36:57;;;;;;;7.28;2.58;;;;;;;32.14;21.97;94007.44;5035383;28;20386;-34
2022/10/24 11:39:25;;;;;;;7.35;3.05;;;;;;;32.07;22.02;94003.72;5035090;28;20036;-34
2022/10/24 11:42:18;;;;;;;9.23;2.70;;;;;;;32.02;21.85;93998.59;5059625;28;20025;-34
2022/10/24 11:44:54;;;;;;;16.60;3.53;;;;;;;31.57;22.29;93996.81;5054716;28;20474;-34